createdAt,value
2024-04-19T00:00:20.068Z,8.02
2024-04-19T00:01:20.105Z,8.01
2024-04-19T00:02:20.057Z,7.98
2024-04-19T00:03:20.156Z,7.96
2024-04-19T00:04:20.120Z,7.97
2024-04-19T00:05:20.021Z,7.97
2024-04-19T00:06:20.016Z,7.97
2024-04-19T00:07:19.963Z,7.97
2024-04-19T00:08:19.970Z,7.98
2024-04-19T00:09:20.022Z,8.01
2024-04-19T00:10:19.951Z,8.02
2024-04-19T00:11:19.949Z,7.98
2024-04-19T00:12:19.964Z,7.98
2024-04-19T00:13:19.895Z,8.01
2024-04-19T00:14:19.919Z,8.04
2024-04-19T00:15:19.883Z,8.01
2024-04-19T00:16:19.931Z,8.02
2024-04-19T00:17:19.853Z,8.02
2024-04-19T00:18:19.883Z,8.04
2024-04-19T00:19:19.934Z,8.02
2024-04-19T00:20:19.845Z,8.02
2024-04-19T00:21:19.938Z,8.04
2024-04-19T00:22:19.801Z,8.04
2024-04-19T00:23:19.811Z,8.05
2024-04-19T00:24:19.843Z,8.06
2024-04-19T00:25:19.800Z,8.08
2024-04-19T00:26:19.774Z,8.06
2024-04-19T00:27:19.824Z,8.09
2024-04-19T00:28:19.749Z,8.11
2024-04-19T00:29:19.757Z,8.12
2024-04-19T00:30:19.825Z,8.12
2024-04-19T00:31:19.716Z,8.15
2024-04-19T00:32:19.724Z,8.16
2024-04-19T00:33:19.764Z,8.16
2024-04-19T00:34:19.895Z,8.18
2024-04-19T00:35:19.668Z,8.15
2024-04-19T00:36:19.691Z,8.15
2024-04-19T00:37:19.635Z,8.15
2024-04-19T00:38:19.623Z,8.15
2024-04-19T00:39:19.672Z,8.18
2024-04-19T00:40:19.644Z,8.18
2024-04-19T00:41:19.630Z,8.18
2024-04-19T00:42:19.675Z,8.18
2024-04-19T00:43:19.585Z,8.18
2024-04-19T00:44:19.589Z,8.20
2024-04-19T00:45:19.572Z,8.20
2024-04-19T00:46:19.559Z,8.20
2024-04-19T00:47:19.573Z,8.21
2024-04-19T00:48:19.727Z,8.21
2024-04-19T00:49:19.519Z,8.21
2024-04-19T00:50:19.497Z,8.20
2024-04-19T00:51:19.552Z,8.20
2024-04-19T00:52:19.475Z,8.16
2024-04-19T00:53:19.463Z,8.15
2024-04-19T00:54:19.488Z,8.12
2024-04-19T00:55:19.451Z,8.11
2024-04-19T00:56:19.460Z,8.12
2024-04-19T00:57:19.443Z,8.09
2024-04-19T00:58:19.406Z,8.06
2024-04-19T00:59:19.406Z,7.98
2024-04-19T01:00:19.549Z,7.98
2024-04-19T01:01:19.623Z,7.94
2024-04-19T01:02:19.452Z,7.93
2024-04-19T01:03:19.404Z,7.88
2024-04-19T01:04:19.441Z,7.87
2024-04-19T01:05:19.344Z,7.84
2024-04-19T01:06:19.360Z,7.84
2024-04-19T01:07:19.312Z,7.80
2024-04-19T01:08:19.299Z,7.83
2024-04-19T01:09:19.351Z,7.83
2024-04-19T01:10:19.276Z,7.84
2024-04-19T01:11:19.305Z,7.83
2024-04-19T01:12:19.274Z,7.86
2024-04-19T01:13:19.239Z,7.84
2024-04-19T01:14:19.268Z,7.87
2024-04-19T01:15:19.276Z,7.84
2024-04-19T01:16:19.225Z,7.80
2024-04-19T01:17:19.242Z,7.83
2024-04-19T01:18:19.289Z,7.83
2024-04-19T01:19:19.273Z,7.83
2024-04-19T01:20:19.171Z,7.80
2024-04-19T01:21:19.189Z,7.80
2024-04-19T01:22:19.158Z,7.80
2024-04-19T01:23:19.143Z,7.83
2024-04-19T01:24:19.147Z,7.83
2024-04-19T01:25:19.116Z,7.84
2024-04-19T01:26:19.079Z,7.83
2024-04-19T01:27:19.113Z,7.79
2024-04-19T01:28:19.107Z,7.79
2024-04-19T01:29:19.065Z,7.79
2024-04-19T01:30:19.120Z,7.79
2024-04-19T01:31:19.054Z,7.80
2024-04-19T01:32:19.082Z,7.78
2024-04-19T01:33:19.192Z,7.79
2024-04-19T01:34:19.254Z,7.76
2024-04-19T01:35:19.006Z,7.76
2024-04-19T01:36:19.046Z,7.79
2024-04-19T01:37:18.987Z,7.79
2024-04-19T01:38:18.971Z,7.78
2024-04-19T01:39:18.985Z,7.78
2024-04-19T01:40:18.968Z,7.76
2024-04-19T01:41:18.935Z,7.76
2024-04-19T01:42:19.014Z,7.76
2024-04-19T01:43:18.928Z,7.76
2024-04-19T01:44:18.935Z,7.78
2024-04-19T01:45:18.953Z,7.79
2024-04-19T01:46:18.900Z,7.75
2024-04-19T01:47:19.031Z,7.76
2024-04-19T01:48:18.988Z,7.75
2024-04-19T01:49:18.884Z,7.75
2024-04-19T01:50:18.871Z,7.76
2024-04-19T01:51:18.828Z,7.70
2024-04-19T01:52:18.824Z,7.72
2024-04-19T01:53:18.819Z,7.72
2024-04-19T01:54:18.877Z,7.70
2024-04-19T01:55:19.026Z,7.66
2024-04-19T01:56:18.782Z,7.69
2024-04-19T01:57:18.810Z,7.68
2024-04-19T01:58:18.760Z,7.66
2024-04-19T01:59:18.737Z,7.64
2024-04-19T02:00:18.774Z,7.64
2024-04-19T02:01:18.759Z,7.62
2024-04-19T02:02:18.833Z,7.62
2024-04-19T02:03:18.719Z,7.59
2024-04-19T02:04:18.758Z,7.56
2024-04-19T02:05:18.682Z,7.54
2024-04-19T02:06:18.687Z,7.53
2024-04-19T02:07:18.664Z,7.50
2024-04-19T02:08:18.647Z,7.50
2024-04-19T02:09:18.633Z,7.49
2024-04-19T02:10:18.665Z,7.47
2024-04-19T02:11:18.616Z,7.44
2024-04-19T02:12:18.635Z,7.44
2024-04-19T02:13:18.593Z,7.41
2024-04-19T02:14:18.607Z,7.39
2024-04-19T02:15:18.676Z,7.39
2024-04-19T02:16:18.578Z,7.39
2024-04-19T02:17:18.577Z,7.38
2024-04-19T02:18:18.611Z,7.36
2024-04-19T02:19:18.522Z,7.35
2024-04-19T02:20:18.545Z,7.34
2024-04-19T02:21:18.530Z,7.31
2024-04-19T02:22:18.503Z,7.32
2024-04-19T02:23:18.483Z,7.32
2024-04-19T02:24:18.502Z,7.29
2024-04-19T02:25:18.492Z,7.29
2024-04-19T02:26:18.431Z,7.28
2024-04-19T02:27:18.610Z,7.28
2024-04-19T02:28:18.424Z,7.29
2024-04-19T02:29:18.423Z,7.28
2024-04-19T02:30:18.453Z,7.26
2024-04-19T02:31:18.389Z,7.28
2024-04-19T02:32:18.396Z,7.23
2024-04-19T02:33:18.462Z,7.21
2024-04-19T02:34:18.424Z,7.20
2024-04-19T02:35:18.354Z,7.17
2024-04-19T02:36:18.511Z,7.16
2024-04-19T02:37:18.317Z,7.14
2024-04-19T02:38:18.332Z,7.11
2024-04-19T02:39:18.357Z,7.10
2024-04-19T02:40:18.317Z,7.10
2024-04-19T02:41:18.319Z,7.10
2024-04-19T02:42:18.298Z,7.03
2024-04-19T02:43:18.275Z,7.03
2024-04-19T02:44:18.251Z,7.03
2024-04-19T02:45:18.350Z,7.03
2024-04-19T02:46:18.512Z,7.07
2024-04-19T02:47:18.236Z,7.07
2024-04-19T02:48:18.215Z,7.08
2024-04-19T02:49:18.212Z,7.08
2024-04-19T02:50:18.209Z,7.08
2024-04-19T02:51:18.240Z,7.10
2024-04-19T02:52:18.179Z,7.13
2024-04-19T02:53:18.177Z,7.11
2024-04-19T02:54:18.173Z,7.10
2024-04-19T02:55:18.155Z,7.10
2024-04-19T02:56:18.151Z,7.08
2024-04-19T02:57:18.146Z,7.08
2024-04-19T02:58:18.113Z,7.07
2024-04-19T02:59:18.107Z,7.07
2024-04-19T03:00:18.142Z,7.08
2024-04-19T03:01:18.106Z,7.08
2024-04-19T03:02:18.055Z,7.05
2024-04-19T03:03:18.198Z,7.03
2024-04-19T03:04:18.088Z,7.03
2024-04-19T03:05:18.060Z,7.02
2024-04-19T03:06:18.137Z,7.02
2024-04-19T03:07:18.059Z,7.03
2024-04-19T03:08:17.994Z,7.03
2024-04-19T03:09:18.058Z,7.03
2024-04-19T03:10:18.011Z,7.05
2024-04-19T03:11:18.048Z,7.05
2024-04-19T03:12:18.118Z,7.03
2024-04-19T03:13:18.094Z,7.05
2024-04-19T03:14:18.028Z,7.05
2024-04-19T03:15:18.146Z,7.07
2024-04-19T03:16:17.950Z,7.08
2024-04-19T03:17:17.940Z,7.07
2024-04-19T03:18:18.013Z,7.08
2024-04-19T03:19:17.870Z,7.08
2024-04-19T03:20:17.872Z,7.08
2024-04-19T03:21:17.896Z,7.08
2024-04-19T03:22:17.850Z,7.10
2024-04-19T03:23:17.833Z,7.10
2024-04-19T03:24:17.823Z,7.10
2024-04-19T03:25:17.792Z,7.10
2024-04-19T03:26:17.819Z,7.10
2024-04-19T03:27:17.812Z,7.08
2024-04-19T03:28:17.780Z,7.11
2024-04-19T03:29:17.740Z,7.08
2024-04-19T03:30:17.776Z,7.03
2024-04-19T03:31:17.716Z,7.05
2024-04-19T03:32:17.749Z,7.05
2024-04-19T03:33:17.960Z,7.10
2024-04-19T03:34:17.739Z,7.10
2024-04-19T03:35:17.741Z,7.08
2024-04-19T03:36:17.704Z,7.07
2024-04-19T03:37:17.676Z,7.07
2024-04-19T03:38:17.639Z,7.05
2024-04-19T03:39:17.692Z,7.07
2024-04-19T03:40:17.635Z,7.07
2024-04-19T03:41:17.610Z,7.05
2024-04-19T03:42:17.728Z,7.05
2024-04-19T03:43:17.617Z,7.07
2024-04-19T03:44:17.571Z,7.07
2024-04-19T03:45:17.592Z,7.05
2024-04-19T03:46:17.572Z,7.05
2024-04-19T03:47:17.603Z,7.05
2024-04-19T03:48:18.611Z,7.07
2024-04-19T03:49:17.520Z,7.07
2024-04-19T03:50:17.524Z,7.05
2024-04-19T03:51:17.520Z,7.05
2024-04-19T03:52:17.530Z,7.07
2024-04-19T03:53:17.496Z,7.07
2024-04-19T03:54:17.518Z,7.07
2024-04-19T03:55:17.463Z,7.08
2024-04-19T03:56:17.451Z,7.08
2024-04-19T03:57:17.514Z,7.10
2024-04-19T03:58:17.416Z,7.10
2024-04-19T03:59:17.439Z,7.11
2024-04-19T04:00:17.487Z,7.11
2024-04-19T04:01:17.437Z,7.11
2024-04-19T04:02:17.463Z,7.13
2024-04-19T04:03:17.508Z,7.14
2024-04-19T04:04:17.366Z,7.17
2024-04-19T04:05:17.344Z,7.18
2024-04-19T04:06:17.404Z,7.16
2024-04-19T04:07:17.379Z,7.16
2024-04-19T04:08:17.322Z,7.18
2024-04-19T04:09:17.336Z,7.18
2024-04-19T04:10:17.299Z,7.21
2024-04-19T04:11:17.318Z,7.21
2024-04-19T04:12:17.339Z,7.25
2024-04-19T04:13:17.251Z,7.28
2024-04-19T04:14:17.247Z,7.28
2024-04-19T04:15:17.237Z,7.28
2024-04-19T04:16:17.223Z,7.28
2024-04-19T04:17:17.300Z,7.28
2024-04-19T04:18:17.475Z,7.29
2024-04-19T04:19:20.446Z,7.31
2024-04-19T04:20:17.179Z,7.32
2024-04-19T04:21:17.160Z,7.35
2024-04-19T04:22:17.215Z,7.32
2024-04-19T04:23:17.166Z,7.32
2024-04-19T04:24:17.147Z,7.34
2024-04-19T04:25:17.115Z,7.36
2024-04-19T04:26:17.104Z,7.36
2024-04-19T04:27:17.162Z,7.36
2024-04-19T04:28:17.152Z,7.35
2024-04-19T04:29:17.093Z,7.35
2024-04-19T04:30:17.117Z,7.36
2024-04-19T04:31:17.076Z,7.34
2024-04-19T04:32:17.159Z,7.36
2024-04-19T04:33:17.053Z,7.35
2024-04-19T04:34:17.067Z,7.38
2024-04-19T04:35:17.048Z,7.36
2024-04-19T04:36:17.013Z,7.39
2024-04-19T04:37:17.051Z,7.42
2024-04-19T04:38:17.026Z,7.41
2024-04-19T04:39:17.021Z,7.44
2024-04-19T04:40:17.005Z,7.47
2024-04-19T04:41:16.969Z,7.49
2024-04-19T04:42:17.040Z,7.50
2024-04-19T04:43:16.980Z,7.50
2024-04-19T04:44:16.941Z,7.50
2024-04-19T04:45:16.956Z,7.49
2024-04-19T04:46:16.910Z,7.49
2024-04-19T04:47:17.076Z,7.50
2024-04-19T04:48:16.989Z,7.53
2024-04-19T04:49:16.952Z,7.50
2024-04-19T04:50:23.677Z,7.52
2024-04-19T04:51:16.957Z,7.54
2024-04-19T04:52:16.982Z,7.54
2024-04-19T04:53:16.843Z,7.57
2024-04-19T04:54:16.902Z,7.59
2024-04-19T04:55:16.861Z,7.59
2024-04-19T04:56:16.794Z,7.59
2024-04-19T04:57:16.855Z,7.57
2024-04-19T04:58:16.776Z,7.56
2024-04-19T04:59:16.869Z,7.57
2024-04-19T05:00:16.807Z,7.57
2024-04-19T05:01:16.826Z,7.59
2024-04-19T05:02:16.762Z,7.62
2024-04-19T05:03:16.735Z,7.62
2024-04-19T05:04:16.745Z,7.64
2024-04-19T05:05:16.718Z,7.66
2024-04-19T05:06:16.719Z,7.70
2024-04-19T05:07:16.699Z,7.73
2024-04-19T05:08:16.681Z,7.72
2024-04-19T05:09:16.673Z,7.73
2024-04-19T05:10:16.674Z,7.73
2024-04-19T05:11:16.738Z,7.75
2024-04-19T05:12:16.724Z,7.75
2024-04-19T05:13:16.591Z,7.78
2024-04-19T05:14:16.583Z,7.76
2024-04-19T05:15:16.679Z,7.76
2024-04-19T05:16:16.583Z,7.73
2024-04-19T05:17:16.639Z,7.72
2024-04-19T05:18:16.660Z,7.70
2024-04-19T05:19:16.556Z,7.70
2024-04-19T05:20:16.527Z,7.72
2024-04-19T05:21:16.533Z,7.72
2024-04-19T05:22:16.582Z,7.70
2024-04-19T05:23:16.508Z,7.70
2024-04-19T05:24:16.523Z,7.69
2024-04-19T05:25:16.470Z,7.68
2024-04-19T05:26:16.482Z,7.64
2024-04-19T05:27:16.496Z,7.66
2024-04-19T05:28:16.474Z,7.62
2024-04-19T05:29:16.461Z,7.60
2024-04-19T05:30:16.486Z,7.62
2024-04-19T05:31:16.420Z,7.60
2024-04-19T05:32:16.511Z,7.62
2024-04-19T05:33:16.487Z,7.64
2024-04-19T05:34:16.411Z,7.64
2024-04-19T05:35:16.392Z,7.68
2024-04-19T05:36:16.409Z,7.72
2024-04-19T05:37:16.391Z,7.73
2024-04-19T05:38:16.363Z,7.73
2024-04-19T05:39:16.377Z,7.70
2024-04-19T05:40:16.362Z,7.72
2024-04-19T05:41:16.348Z,7.75
2024-04-19T05:42:16.395Z,7.75
2024-04-19T05:43:16.304Z,7.78
2024-04-19T05:44:16.287Z,7.76
2024-04-19T05:45:16.363Z,7.79
2024-04-19T05:46:16.323Z,7.79
2024-04-19T05:47:16.298Z,7.84
2024-04-19T05:48:19.440Z,7.86
2024-04-19T05:49:16.285Z,7.90
2024-04-19T05:50:16.232Z,7.93
2024-04-19T05:51:16.285Z,7.96
2024-04-19T05:52:16.256Z,7.97
2024-04-19T05:53:16.210Z,8.01
2024-04-19T05:54:16.330Z,8.02
2024-04-19T05:55:16.235Z,8.04
2024-04-19T05:56:16.182Z,8.04
2024-04-19T05:57:16.440Z,8.05
2024-04-19T05:58:16.350Z,8.08
2024-04-19T05:59:16.118Z,8.04
2024-04-19T06:00:16.136Z,8.05
2024-04-19T06:01:16.257Z,8.11
2024-04-19T06:02:16.138Z,8.13
2024-04-19T06:03:16.197Z,8.20
2024-04-19T06:04:16.147Z,8.23
2024-04-19T06:05:16.050Z,8.24
2024-04-19T06:06:16.686Z,8.29
2024-04-19T06:07:16.153Z,8.31
2024-04-19T06:08:16.054Z,8.30
2024-04-19T06:09:16.032Z,8.26
2024-04-19T06:10:16.008Z,8.16
2024-04-19T06:11:16.083Z,8.12
2024-04-19T06:12:16.007Z,8.11
2024-04-19T06:13:25.685Z,8.08
2024-04-19T06:14:16.125Z,8.08
2024-04-19T06:15:16.095Z,8.09
2024-04-19T06:16:15.937Z,8.12
2024-04-19T06:17:15.921Z,8.16
2024-04-19T06:18:16.052Z,8.21
2024-04-19T06:19:15.926Z,8.20
2024-04-19T06:20:15.940Z,8.23
2024-04-19T06:21:15.960Z,8.26
2024-04-19T06:22:15.860Z,8.27
2024-04-19T06:23:15.877Z,8.29
2024-04-19T06:24:15.849Z,8.30
2024-04-19T06:25:15.894Z,8.31
2024-04-19T06:26:15.864Z,8.33
2024-04-19T06:27:15.855Z,8.31
2024-04-19T06:28:15.818Z,8.33
2024-04-19T06:29:15.809Z,8.31
2024-04-19T06:30:15.881Z,8.31
2024-04-19T06:31:16.796Z,8.34
2024-04-19T06:32:15.809Z,8.36
2024-04-19T06:33:15.850Z,8.38
2024-04-19T06:34:15.750Z,8.38
2024-04-19T06:35:15.764Z,8.31
2024-04-19T06:36:15.786Z,8.30
2024-04-19T06:37:15.715Z,8.33
2024-04-19T06:38:15.729Z,8.31
2024-04-19T06:39:15.728Z,8.33
2024-04-19T06:40:15.727Z,8.33
2024-04-19T06:41:15.750Z,8.31
2024-04-19T06:42:15.808Z,8.30
2024-04-19T06:43:15.696Z,8.27
2024-04-19T06:44:15.663Z,8.29
2024-04-19T06:45:15.663Z,8.27
2024-04-19T06:46:15.611Z,8.26
2024-04-19T06:47:15.603Z,8.21
2024-04-19T06:48:15.765Z,8.15
2024-04-19T06:49:15.628Z,7.94
2024-04-19T06:50:15.623Z,7.88
2024-04-19T06:51:15.634Z,7.84
2024-04-19T06:52:15.607Z,7.87
2024-04-19T06:53:15.702Z,7.87
2024-04-19T06:54:15.587Z,7.86
2024-04-19T06:55:15.602Z,7.80
2024-04-19T06:56:15.544Z,7.84
2024-04-19T06:57:15.567Z,7.83
2024-04-19T06:58:15.560Z,7.79
2024-04-19T06:59:15.528Z,7.80
2024-04-19T07:00:27.401Z,7.84
2024-04-19T07:01:18.320Z,7.84
2024-04-19T07:02:15.524Z,7.86
2024-04-19T07:03:15.578Z,7.86
2024-04-19T07:04:15.587Z,7.84
2024-04-19T07:05:15.496Z,7.80
2024-04-19T07:06:23.486Z,7.78
2024-04-19T07:07:15.460Z,7.79
2024-04-19T07:08:15.392Z,7.78
2024-04-19T07:09:15.492Z,7.75
2024-04-19T07:10:15.347Z,7.76
2024-04-19T07:11:15.322Z,7.75
2024-04-19T07:12:15.493Z,7.70
2024-04-19T07:13:15.393Z,7.69
2024-04-19T07:14:15.304Z,7.66
2024-04-19T07:15:15.421Z,7.62
2024-04-19T07:16:15.353Z,7.59
2024-04-19T07:17:15.310Z,7.59
2024-04-19T07:18:15.323Z,7.60
2024-04-19T07:19:15.289Z,7.59
2024-04-19T07:20:15.228Z,7.62
2024-04-19T07:21:15.451Z,7.62
2024-04-19T07:22:15.244Z,7.66
2024-04-19T07:23:21.282Z,7.68
2024-04-19T07:24:15.276Z,7.68
2024-04-19T07:25:15.183Z,7.70
2024-04-19T07:26:15.220Z,7.72
2024-04-19T07:27:15.280Z,7.72
2024-04-19T07:28:15.199Z,7.72
2024-04-19T07:29:17.176Z,7.69
2024-04-19T07:30:15.291Z,7.70
2024-04-19T07:31:15.114Z,7.68
2024-04-19T07:32:15.178Z,7.68
2024-04-19T07:33:15.141Z,7.68
2024-04-19T07:34:15.087Z,7.70
2024-04-19T07:35:15.082Z,7.68
2024-04-19T07:36:15.072Z,7.66
2024-04-19T07:37:15.073Z,7.70
2024-04-19T07:38:15.060Z,7.73
2024-04-19T07:39:15.044Z,7.73
2024-04-19T07:40:15.023Z,7.75
2024-04-19T07:41:16.595Z,7.78
2024-04-19T07:42:15.013Z,7.80
2024-04-19T07:43:15.000Z,7.86
2024-04-19T07:44:15.029Z,7.88
2024-04-19T07:45:14.962Z,7.91
2024-04-19T07:46:14.974Z,7.96
2024-04-19T07:47:14.951Z,7.97
2024-04-19T07:48:15.080Z,8.01
2024-04-19T07:49:14.983Z,7.97
2024-04-19T07:50:14.955Z,8.06
2024-04-19T07:51:14.922Z,8.11
2024-04-19T07:52:14.916Z,8.13
2024-04-19T07:53:14.904Z,8.18
2024-04-19T07:54:21.674Z,8.20
2024-04-19T07:55:15.060Z,8.23
2024-04-19T07:56:14.995Z,8.23
2024-04-19T07:57:14.820Z,8.26
2024-04-19T07:58:14.838Z,8.26
2024-04-19T07:59:14.843Z,8.24
2024-04-19T08:00:14.907Z,8.16
2024-04-19T08:01:14.890Z,8.20
2024-04-19T08:02:14.822Z,8.21
2024-04-19T08:03:14.811Z,8.20
2024-04-19T08:04:14.916Z,8.20
2024-04-19T08:05:14.732Z,8.18
2024-04-19T08:06:14.806Z,8.20
2024-04-19T08:07:23.569Z,8.16
2024-04-19T08:08:14.749Z,8.11
2024-04-19T08:09:15.105Z,8.09
2024-04-19T08:10:14.715Z,8.08
2024-04-19T08:11:14.768Z,8.02
2024-04-19T08:12:14.687Z,8.05
2024-04-19T08:13:14.714Z,8.08
2024-04-19T08:14:14.683Z,8.05
2024-04-19T08:15:14.650Z,8.05
2024-04-19T08:16:14.783Z,8.01
2024-04-19T08:17:14.672Z,7.98
2024-04-19T08:18:14.641Z,8.01
2024-04-19T08:19:14.579Z,8.02
2024-04-19T08:20:14.598Z,7.98
2024-04-19T08:21:14.584Z,7.97
2024-04-19T08:22:14.573Z,7.90
2024-04-19T08:23:15.015Z,7.90
2024-04-19T08:24:14.577Z,7.87
2024-04-19T08:25:14.527Z,7.83
2024-04-19T08:26:14.561Z,7.84
2024-04-19T08:27:14.576Z,7.80
2024-04-19T08:28:14.541Z,7.83
2024-04-19T08:29:22.156Z,7.83
2024-04-19T08:30:14.516Z,7.83
2024-04-19T08:31:14.532Z,7.79
2024-04-19T08:32:14.492Z,7.79
2024-04-19T08:33:14.468Z,7.80
2024-04-19T08:34:14.529Z,7.79
2024-04-19T08:35:14.428Z,7.78
2024-04-19T08:36:14.410Z,7.80
2024-04-19T08:37:14.416Z,7.84
2024-04-19T08:38:14.406Z,7.84
2024-04-19T08:39:14.438Z,7.87
2024-04-19T08:40:14.403Z,7.91
2024-04-19T08:41:14.392Z,7.90
2024-04-19T08:42:14.384Z,7.91
2024-04-19T08:43:14.339Z,7.93
2024-04-19T08:44:14.348Z,7.93
2024-04-19T08:45:14.473Z,7.93
2024-04-19T08:46:14.445Z,7.93
2024-04-19T08:47:14.274Z,7.96
2024-04-19T08:48:14.316Z,7.97
2024-04-19T08:49:14.339Z,8.01
2024-04-19T08:50:17.114Z,8.05
2024-04-19T08:51:17.917Z,8.01
2024-04-19T08:52:29.955Z,8.06
2024-04-19T08:53:16.091Z,8.09
2024-04-19T08:54:14.242Z,8.11
2024-04-19T08:55:14.281Z,8.11
2024-04-19T08:56:14.216Z,8.13
2024-04-19T08:57:14.227Z,8.13
2024-04-19T08:58:14.291Z,8.16
2024-04-19T08:59:14.180Z,8.20
2024-04-19T09:00:16.052Z,8.18
2024-04-19T09:01:14.241Z,8.20
2024-04-19T09:02:15.158Z,8.21
2024-04-19T09:03:14.230Z,8.20
2024-04-19T09:04:15.514Z,8.23
2024-04-19T09:05:14.104Z,8.29
2024-04-19T09:06:14.111Z,8.30
2024-04-19T09:07:14.080Z,8.34
2024-04-19T09:08:14.109Z,8.38
2024-04-19T09:09:14.050Z,8.38
2024-04-19T09:10:14.076Z,8.38
2024-04-19T09:11:14.132Z,8.42
2024-04-19T09:12:14.045Z,8.41
2024-04-19T09:13:14.012Z,8.44
2024-04-19T09:14:14.028Z,8.48
2024-04-19T09:15:14.039Z,8.48
2024-04-19T09:16:13.982Z,8.51
2024-04-19T09:17:13.997Z,8.52
2024-04-19T09:18:14.019Z,8.48
2024-04-19T09:19:13.928Z,8.48
2024-04-19T09:20:14.002Z,8.49
2024-04-19T09:21:13.976Z,8.49
2024-04-19T09:22:13.949Z,8.52
2024-04-19T09:23:13.932Z,8.54
2024-04-19T09:24:14.723Z,8.55
2024-04-19T09:25:13.883Z,8.59
2024-04-19T09:26:13.889Z,8.63
2024-04-19T09:27:16.060Z,8.66
2024-04-19T09:28:13.879Z,8.69
2024-04-19T09:29:13.837Z,8.69
2024-04-19T09:30:13.839Z,8.70
2024-04-19T09:31:13.826Z,8.73
2024-04-19T09:32:13.857Z,8.72
2024-04-19T09:33:13.920Z,8.72
2024-04-19T09:34:13.826Z,8.72
2024-04-19T09:35:13.788Z,8.73
2024-04-19T09:36:13.760Z,8.72
2024-04-19T09:37:13.766Z,8.69
2024-04-19T09:38:13.754Z,8.69
2024-04-19T09:39:13.746Z,8.67
2024-04-19T09:40:13.776Z,8.67
2024-04-19T09:41:13.703Z,8.67
2024-04-19T09:42:13.740Z,8.66
2024-04-19T09:43:13.757Z,8.60
2024-04-19T09:44:13.700Z,8.62
2024-04-19T09:45:13.690Z,8.59
2024-04-19T09:46:13.722Z,8.54
2024-04-19T09:47:13.669Z,8.51
2024-04-19T09:48:13.641Z,8.49
2024-04-19T09:49:13.633Z,8.52
2024-04-19T09:50:13.636Z,8.52
2024-04-19T09:51:13.612Z,8.57
2024-04-19T09:52:13.596Z,8.59
2024-04-19T09:53:13.579Z,8.62
2024-04-19T09:54:14.048Z,8.63
2024-04-19T09:55:13.596Z,8.66
2024-04-19T09:56:13.566Z,8.66
2024-04-19T09:57:13.534Z,8.67
2024-04-19T09:58:13.550Z,8.66
2024-04-19T09:59:13.511Z,8.66
2024-04-19T10:00:13.542Z,8.63
2024-04-19T10:01:13.566Z,8.66
2024-04-19T10:02:20.799Z,8.64
2024-04-19T10:03:13.620Z,8.60
2024-04-19T10:04:13.540Z,8.60
2024-04-19T10:05:13.471Z,8.60
2024-04-19T10:06:13.480Z,8.59
2024-04-19T10:07:13.437Z,8.51
2024-04-19T10:08:13.430Z,8.47
2024-04-19T10:09:13.411Z,8.48
2024-04-19T10:10:13.434Z,8.48
2024-04-19T10:11:13.419Z,8.48
2024-04-19T10:12:13.379Z,8.47
2024-04-19T10:13:13.399Z,8.41
2024-04-19T10:14:13.351Z,8.39
2024-04-19T10:15:13.352Z,8.42
2024-04-19T10:16:13.329Z,8.42
2024-04-19T10:17:13.356Z,8.47
2024-04-19T10:19:13.314Z,8.54
2024-04-19T10:20:13.340Z,8.59
2024-04-19T10:21:13.258Z,8.55
2024-04-19T10:22:13.260Z,8.47
2024-04-19T10:23:13.257Z,8.44
2024-04-19T10:24:15.578Z,8.47
2024-04-19T10:25:13.247Z,8.49
2024-04-19T10:26:13.234Z,8.42
2024-04-19T10:27:13.221Z,8.44
2024-04-19T10:28:13.205Z,8.41
2024-04-19T10:29:13.190Z,8.41
2024-04-19T10:30:18.386Z,8.36
2024-04-19T10:31:13.242Z,8.33
2024-04-19T10:32:13.157Z,8.27
2024-04-19T10:33:13.149Z,8.26
2024-04-19T10:34:13.166Z,8.24
2024-04-19T10:35:13.134Z,8.21
2024-04-19T10:36:13.114Z,8.18
2024-04-19T10:37:13.100Z,8.18
2024-04-19T10:38:13.080Z,8.13
2024-04-19T10:39:13.082Z,8.04
2024-04-19T10:40:13.089Z,8.04
2024-04-19T10:41:13.040Z,7.98
2024-04-19T10:42:13.059Z,8.02
2024-04-19T10:43:13.029Z,8.02
2024-04-19T10:44:12.996Z,8.05
2024-04-19T10:45:13.047Z,8.12
2024-04-19T10:46:13.013Z,8.16
2024-04-19T10:47:13.017Z,8.16
2024-04-19T10:48:13.018Z,8.11
2024-04-19T10:49:13.044Z,8.13
2024-04-19T10:50:12.965Z,8.16
2024-04-19T10:51:12.978Z,8.21
2024-04-19T10:52:12.943Z,8.27
2024-04-19T10:53:12.951Z,8.29
2024-04-19T10:54:12.922Z,8.20
2024-04-19T10:55:12.929Z,8.12
2024-04-19T10:56:12.961Z,8.11
2024-04-19T10:57:12.876Z,8.11
2024-04-19T10:58:12.895Z,8.11
2024-04-19T10:59:12.864Z,8.09
2024-04-19T11:00:12.866Z,8.08
2024-04-19T11:01:12.943Z,8.11
2024-04-19T11:02:12.822Z,8.15
2024-04-19T11:03:19.657Z,8.16
2024-04-19T11:04:13.152Z,8.21
2024-04-19T11:05:12.801Z,8.24
2024-04-19T11:06:14.619Z,8.29
2024-04-19T11:07:12.751Z,8.30
2024-04-19T11:08:12.756Z,8.31
2024-04-19T11:09:12.750Z,8.34
2024-04-19T11:10:12.741Z,8.38
2024-04-19T11:11:12.764Z,8.41
2024-04-19T11:12:12.707Z,8.47
2024-04-19T11:13:12.697Z,8.51
2024-04-19T11:14:12.696Z,8.51
2024-04-19T11:15:12.698Z,8.52
2024-04-19T11:16:12.690Z,8.54
2024-04-19T11:17:12.658Z,8.49
2024-04-19T11:18:12.692Z,8.48
2024-04-19T11:19:12.647Z,8.49
2024-04-19T11:20:12.639Z,8.47
2024-04-19T11:21:13.871Z,8.44
2024-04-19T11:22:12.599Z,8.41
2024-04-19T11:23:12.602Z,8.42
2024-04-19T11:24:12.559Z,8.45
2024-04-19T11:25:12.587Z,8.45
2024-04-19T11:26:12.581Z,8.34
2024-04-19T11:27:12.588Z,8.33
2024-04-19T11:28:12.553Z,8.31
2024-04-19T11:29:13.318Z,8.29
2024-04-19T11:30:12.507Z,8.24
2024-04-19T11:31:12.523Z,8.21
2024-04-19T11:32:12.558Z,8.15
2024-04-19T11:33:12.520Z,8.08
2024-04-19T11:34:12.451Z,8.02
2024-04-19T11:35:12.499Z,7.96
2024-04-19T11:36:12.459Z,7.97
2024-04-19T11:37:12.474Z,7.94
2024-04-19T11:38:12.432Z,7.90
2024-04-19T11:39:12.473Z,7.88
2024-04-19T11:40:13.707Z,7.86
2024-04-19T11:41:12.403Z,7.87
2024-04-19T11:42:12.405Z,7.87
2024-04-19T11:43:12.383Z,7.86
2024-04-19T11:44:12.370Z,7.87
2024-04-19T11:45:12.378Z,7.80
2024-04-19T11:46:12.319Z,7.76
2024-04-19T11:47:12.453Z,7.72
2024-04-19T11:48:12.414Z,7.69
2024-04-19T11:49:12.355Z,7.73
2024-04-19T11:50:12.330Z,7.72
2024-04-19T11:51:12.300Z,7.72
2024-04-19T11:52:12.274Z,7.73
2024-04-19T11:53:12.273Z,7.75
2024-04-19T11:54:12.280Z,7.73
2024-04-19T11:55:12.243Z,7.72
2024-04-19T11:56:12.236Z,7.72
2024-04-19T11:57:12.228Z,7.69
2024-04-19T11:58:12.206Z,7.69
2024-04-19T11:59:12.210Z,7.72
2024-04-19T12:00:12.165Z,7.70
2024-04-19T12:02:29.323Z,7.68
2024-04-19T12:03:30.470Z,7.64
2024-04-19T12:04:30.356Z,7.62
2024-04-19T12:05:30.280Z,7.57
2024-04-19T12:06:30.266Z,7.53
2024-04-19T12:07:30.118Z,7.56
2024-04-19T12:08:30.192Z,7.57
2024-04-19T12:09:30.144Z,7.59
2024-04-19T12:10:30.089Z,7.56
2024-04-19T12:11:30.135Z,7.52
2024-04-19T12:14:13.664Z,7.52
2024-04-19T12:16:15.768Z,7.56
2024-04-19T12:16:47.224Z,7.59
2024-04-19T12:17:30.716Z,7.59
2024-04-19T12:18:30.256Z,7.60
2024-04-19T12:19:30.141Z,7.54
2024-04-19T12:20:42.213Z,7.50
2024-04-19T12:21:30.257Z,7.50
2024-04-19T12:22:31.658Z,7.46
2024-04-19T12:23:30.271Z,7.42
2024-04-19T12:24:30.320Z,7.44
2024-04-19T12:25:30.215Z,7.44
2024-04-19T12:26:30.069Z,7.46
2024-04-19T12:27:30.145Z,7.49
2024-04-19T12:28:30.070Z,7.49
2024-04-19T12:29:29.938Z,7.47
2024-04-19T12:30:29.857Z,7.46
2024-04-19T12:31:29.833Z,7.46
2024-04-19T12:32:29.959Z,7.44
2024-04-19T12:33:29.971Z,7.46
2024-04-19T12:34:29.818Z,7.47
2024-04-19T12:35:29.795Z,7.46
2024-04-19T12:36:29.833Z,7.44
2024-04-19T12:37:29.790Z,7.46
2024-04-19T12:38:29.750Z,7.47
2024-04-19T12:39:29.766Z,7.50
2024-04-19T12:40:29.815Z,7.54
2024-04-19T12:41:29.755Z,7.59
2024-04-19T12:42:29.767Z,7.62
2024-04-19T12:43:29.725Z,7.62
2024-04-19T12:44:29.711Z,7.64
2024-04-19T12:45:29.787Z,7.68
2024-04-19T12:46:29.704Z,7.66
2024-04-19T12:47:29.782Z,7.66
2024-04-19T12:48:29.816Z,7.66
2024-04-19T12:49:29.723Z,7.69
2024-04-19T12:50:29.624Z,7.64
2024-04-19T12:51:29.660Z,7.64
2024-04-19T12:52:29.633Z,7.64
2024-04-19T12:53:29.624Z,7.53
2024-04-19T12:54:29.681Z,7.52
2024-04-19T12:55:29.581Z,7.56
2024-04-19T12:56:29.593Z,7.60
2024-04-19T12:57:29.598Z,7.68
2024-04-19T12:58:29.550Z,7.72
2024-04-19T12:59:29.571Z,7.76
2024-04-19T13:00:29.661Z,7.80
2024-04-19T13:01:29.609Z,7.86
2024-04-19T13:02:29.611Z,7.90
2024-04-19T13:03:29.594Z,7.88
2024-04-19T13:04:29.535Z,7.87
2024-04-19T13:05:29.466Z,7.91
2024-04-19T13:06:29.503Z,7.97
2024-04-19T13:07:29.487Z,7.98
2024-04-19T13:08:29.444Z,8.01
2024-04-19T13:09:29.452Z,8.04
2024-04-19T13:10:29.459Z,8.04
2024-04-19T13:11:29.453Z,8.08
2024-04-19T13:12:29.450Z,8.05
2024-04-19T13:13:29.388Z,8.08
2024-04-19T13:14:29.373Z,8.06
2024-04-19T13:15:29.409Z,8.11
2024-04-19T13:16:29.416Z,8.15
2024-04-19T13:17:29.381Z,8.20
2024-04-19T13:18:29.358Z,8.21
2024-04-19T13:19:29.339Z,8.21
2024-04-19T13:20:29.315Z,8.26
2024-04-19T13:21:29.332Z,8.27
2024-04-19T13:22:29.355Z,8.33